createdAt,value
2022-10-08T00:01:26.208Z,16.73
2022-10-08T00:03:56.341Z,16.71
2022-10-08T00:06:27.082Z,16.72
2022-10-08T00:08:58.578Z,16.62
2022-10-08T00:11:28.481Z,16.64
2022-10-08T00:13:56.897Z,16.56
2022-10-08T00:16:27.182Z,16.55
2022-10-08T00:18:56.977Z,16.48
2022-10-08T00:21:28.139Z,16.43
2022-10-08T00:23:59.085Z,16.43
2022-10-08T00:26:29.997Z,16.39
2022-10-08T00:28:59.517Z,16.32
2022-10-08T00:31:29.336Z,16.32
2022-10-08T00:33:59.471Z,16.29
2022-10-08T00:36:31.501Z,16.23
2022-10-08T00:39:02.560Z,16.17
2022-10-08T00:41:32.685Z,16.12
2022-10-08T00:44:03.351Z,16.10
2022-10-08T00:46:36.710Z,16.14
2022-10-08T00:49:12.332Z,16.11
2022-10-08T00:51:44.213Z,16.11
2022-10-08T00:56:43.571Z,16.09
2022-10-08T00:59:14.193Z,16.02
2022-10-08T01:01:43.565Z,15.81
2022-10-08T01:04:14.737Z,15.54
2022-10-08T01:06:50.788Z,15.52
2022-10-08T01:09:24.769Z,15.53
2022-10-08T01:11:59.297Z,15.33
2022-10-08T01:14:45.042Z,15.33
2022-10-08T01:17:24.237Z,15.19
2022-10-08T01:20:27.465Z,15.19
2022-10-08T01:23:19.831Z,15.17
2022-10-08T01:25:57.032Z,15.18
2022-10-08T01:28:32.432Z,15.04
2022-10-08T01:31:06.191Z,15.13
2022-10-08T01:33:40.763Z,15.12
2022-10-08T01:36:11.125Z,15.02
2022-10-08T01:38:45.046Z,15.04
2022-10-08T01:41:17.099Z,15.02
2022-10-08T01:43:51.083Z,15.03
2022-10-08T01:46:21.737Z,14.99
2022-10-08T01:48:53.843Z,15.01
2022-10-08T01:51:26.742Z,14.99
2022-10-08T01:53:56.022Z,15.00
2022-10-08T01:56:27.604Z,14.98
2022-10-08T01:59:00.574Z,15.01
2022-10-08T02:01:34.159Z,14.97
2022-10-08T02:04:19.512Z,14.96
2022-10-08T02:06:52.774Z,14.92
2022-10-08T02:09:21.011Z,14.91
2022-10-08T02:11:49.006Z,14.89
2022-10-08T02:14:18.715Z,14.92
2022-10-08T02:16:51.331Z,14.93
2022-10-08T02:19:25.235Z,14.97
2022-10-08T02:21:55.838Z,15.00
2022-10-08T02:24:29.852Z,15.06
2022-10-08T02:27:03.681Z,15.08
2022-10-08T02:29:38.295Z,15.04
2022-10-08T02:32:11.307Z,15.13
2022-10-08T02:34:45.380Z,15.11
2022-10-08T02:37:19.064Z,15.08
2022-10-08T02:39:52.431Z,15.10
2022-10-08T02:42:24.532Z,15.14
2022-10-08T02:44:57.724Z,15.18
2022-10-08T02:47:30.632Z,15.14
2022-10-08T02:50:02.758Z,15.10
2022-10-08T02:52:36.220Z,15.13
2022-10-08T02:55:09.531Z,15.11
2022-10-08T02:57:44.098Z,14.98
2022-10-08T03:00:14.446Z,14.93
2022-10-08T03:02:47.814Z,14.78
2022-10-08T03:05:20.203Z,14.73
2022-10-08T03:07:51.669Z,14.57
2022-10-08T03:10:22.023Z,14.53
2022-10-08T03:12:50.910Z,14.59
2022-10-08T03:15:20.571Z,14.34
2022-10-08T03:17:49.835Z,13.79
2022-10-08T03:20:17.824Z,13.15
2022-10-08T03:22:46.306Z,13.05
2022-10-08T03:25:14.465Z,12.87
2022-10-08T03:27:42.450Z,12.89
2022-10-08T03:30:12.036Z,13.31
2022-10-08T03:32:41.432Z,13.34
2022-10-08T03:35:09.705Z,13.66
2022-10-08T03:37:37.781Z,14.06
2022-10-08T03:40:06.543Z,14.33
2022-10-08T03:42:34.740Z,14.29
2022-10-08T03:45:02.642Z,13.81
2022-10-08T03:47:30.586Z,13.45
2022-10-08T03:49:59.938Z,13.64
2022-10-08T03:52:27.976Z,13.52
2022-10-08T03:54:55.913Z,13.39
2022-10-08T03:57:24.293Z,13.89
2022-10-08T03:59:52.255Z,13.89
2022-10-08T04:02:20.304Z,13.63
2022-10-08T04:04:48.345Z,13.65
2022-10-08T04:07:17.741Z,13.89
2022-10-08T04:09:45.708Z,14.00
2022-10-08T04:12:13.680Z,14.17
2022-10-08T04:14:41.697Z,14.22
2022-10-08T04:17:09.649Z,14.08
2022-10-08T04:19:37.644Z,14.02
2022-10-08T04:22:05.707Z,13.80
2022-10-08T04:24:34.989Z,14.07
2022-10-08T04:27:02.959Z,13.01
2022-10-08T04:29:30.883Z,12.72
2022-10-08T04:31:58.912Z,12.77
2022-10-08T04:34:26.865Z,13.02
2022-10-08T04:36:54.789Z,13.00
2022-10-08T04:39:22.867Z,12.89
2022-10-08T04:41:52.303Z,12.96
2022-10-08T04:44:20.319Z,13.17
2022-10-08T04:46:48.453Z,12.74
2022-10-08T04:49:16.671Z,12.56
2022-10-08T04:51:44.640Z,13.21
2022-10-08T04:54:12.743Z,13.50
2022-10-08T04:56:40.727Z,13.49
2022-10-08T04:59:10.136Z,12.94
2022-10-08T05:01:38.243Z,12.34
2022-10-08T05:04:06.325Z,12.55
2022-10-08T05:06:35.016Z,12.96
2022-10-08T05:09:04.254Z,13.42
2022-10-08T05:11:33.442Z,12.70
2022-10-08T05:14:02.021Z,12.23
2022-10-08T05:16:31.405Z,11.52
2022-10-08T05:18:59.699Z,11.52
2022-10-08T05:21:30.349Z,11.26
2022-10-08T05:24:01.140Z,11.34
2022-10-08T05:26:58.046Z,11.98
2022-10-08T05:29:20.231Z,11.90
2022-10-08T05:31:49.547Z,12.46
2022-10-08T05:34:17.874Z,12.61
2022-10-08T05:36:45.860Z,12.62
2022-10-08T05:39:14.135Z,13.05
2022-10-08T05:41:42.523Z,13.18
2022-10-08T05:44:11.758Z,13.28
2022-10-08T05:46:40.422Z,13.41
2022-10-08T05:49:21.066Z,13.01
2022-10-08T05:51:49.863Z,13.29
2022-10-08T05:54:18.318Z,13.54
2022-10-08T05:56:46.502Z,13.59
2022-10-08T05:59:19.117Z,13.68
2022-10-08T06:01:47.108Z,13.62
2022-10-08T06:04:18.431Z,13.68
2022-10-08T06:06:47.056Z,13.85
2022-10-08T06:09:18.195Z,13.93
2022-10-08T06:11:47.239Z,14.04
2022-10-08T06:14:17.715Z,13.94
2022-10-08T06:16:45.762Z,14.02
2022-10-08T06:19:14.014Z,14.06
2022-10-08T06:21:43.477Z,13.92
2022-10-08T06:24:13.350Z,13.99
2022-10-08T06:26:43.081Z,14.03
2022-10-08T06:29:15.171Z,14.24
2022-10-08T06:31:43.549Z,14.27
2022-10-08T06:34:11.572Z,14.39
2022-10-08T06:36:39.552Z,14.36
2022-10-08T06:39:12.355Z,14.39
2022-10-08T06:41:40.285Z,14.42
2022-10-08T06:44:12.427Z,14.54
2022-10-08T06:46:40.735Z,14.41
2022-10-08T06:49:08.876Z,14.30
2022-10-08T06:51:36.951Z,14.35
2022-10-08T06:54:07.762Z,14.21
2022-10-08T06:56:38.566Z,14.41
2022-10-08T06:59:07.778Z,14.48
2022-10-08T07:01:36.324Z,13.82
2022-10-08T07:04:06.927Z,13.30
2022-10-08T07:06:35.486Z,13.65
2022-10-08T07:09:04.841Z,13.87
2022-10-08T07:11:33.726Z,14.31
2022-10-08T07:14:03.178Z,14.54
2022-10-08T07:16:31.224Z,14.91
2022-10-08T07:18:59.460Z,15.18
2022-10-08T07:21:29.234Z,15.33
2022-10-08T07:23:59.552Z,15.57
2022-10-08T07:26:29.718Z,15.73
2022-10-08T07:28:59.750Z,15.72
2022-10-08T07:31:31.389Z,15.82
2022-10-08T07:34:00.725Z,16.10
2022-10-08T07:36:30.023Z,16.23
2022-10-08T07:38:59.669Z,16.33
2022-10-08T07:41:29.084Z,16.50
2022-10-08T07:43:59.838Z,16.50
2022-10-08T07:46:30.636Z,16.67
2022-10-08T07:49:01.516Z,16.85
2022-10-08T07:51:31.398Z,16.88
2022-10-08T07:54:02.781Z,17.02
2022-10-08T07:56:32.042Z,17.14
2022-10-08T07:59:00.790Z,17.34
2022-10-08T08:01:31.423Z,17.46
2022-10-08T08:04:02.211Z,17.54
2022-10-08T08:06:31.843Z,17.60
2022-10-08T08:09:01.548Z,17.77
2022-10-08T08:11:29.990Z,17.70
2022-10-08T08:13:58.407Z,17.98
2022-10-08T08:16:29.272Z,18.02
2022-10-08T08:19:01.688Z,18.12
2022-10-08T08:21:31.502Z,18.33
2022-10-08T08:24:03.842Z,18.48
2022-10-08T08:26:34.098Z,18.23
2022-10-08T08:29:05.047Z,18.42
2022-10-08T08:31:34.123Z,18.54
2022-10-08T08:34:07.128Z,18.38
2022-10-08T08:36:38.112Z,18.13
2022-10-08T08:39:07.497Z,18.22
2022-10-08T08:41:47.368Z,18.75
2022-10-08T08:44:21.143Z,18.39
2022-10-08T08:46:53.841Z,18.68
2022-10-08T08:49:28.386Z,19.06
2022-10-08T08:51:58.415Z,19.01
2022-10-08T08:54:34.833Z,19.37
2022-10-08T08:57:19.817Z,19.65
2022-10-08T08:59:50.482Z,19.74
2022-10-08T09:02:24.467Z,19.95
2022-10-08T09:04:58.551Z,20.17
2022-10-08T09:07:30.702Z,20.10
2022-10-08T09:10:00.752Z,20.19
2022-10-08T09:12:34.455Z,20.49
2022-10-08T09:15:04.177Z,20.21
2022-10-08T09:17:34.737Z,20.34
2022-10-08T09:20:04.927Z,20.66
2022-10-08T09:22:37.749Z,20.63
2022-10-08T09:25:08.427Z,20.66
2022-10-08T09:27:50.818Z,20.28
2022-10-08T09:30:31.138Z,20.35
2022-10-08T09:33:01.339Z,19.25
2022-10-08T09:35:33.818Z,19.79
2022-10-08T09:38:05.821Z,20.15
2022-10-08T09:40:34.143Z,20.41
2022-10-08T09:43:19.708Z,19.57
2022-10-08T09:45:49.520Z,20.08
2022-10-08T09:48:23.380Z,19.27
2022-10-08T09:51:00.212Z,19.94
2022-10-08T09:53:36.587Z,20.39
2022-10-08T09:56:07.452Z,20.75
2022-10-08T09:58:41.772Z,20.95
2022-10-08T10:01:15.787Z,21.25
2022-10-08T10:03:51.282Z,21.66
2022-10-08T10:06:29.003Z,21.62
2022-10-08T10:09:03.991Z,21.05
2022-10-08T10:11:38.467Z,21.01
2022-10-08T10:14:15.213Z,21.07
2022-10-08T10:16:45.876Z,21.32
2022-10-08T10:19:19.581Z,21.77
2022-10-08T10:21:55.827Z,21.31
2022-10-08T10:24:38.024Z,21.86
2022-10-08T10:27:12.465Z,21.71
2022-10-08T10:29:54.393Z,22.21
2022-10-08T10:32:31.725Z,22.47
2022-10-08T10:35:07.557Z,22.06
2022-10-08T10:37:47.613Z,22.07
2022-10-08T10:40:32.512Z,22.15
2022-10-08T10:43:29.033Z,22.33
2022-10-08T10:46:01.716Z,22.50
2022-10-08T10:48:30.604Z,22.60
2022-10-08T10:51:15.089Z,22.64
2022-10-08T10:53:54.381Z,22.43
2022-10-08T10:56:23.618Z,22.55
2022-10-08T10:59:08.931Z,21.81
2022-10-08T11:01:45.515Z,21.42
2022-10-08T11:04:23.066Z,21.70
2022-10-08T11:07:02.882Z,21.34
2022-10-08T11:09:52.425Z,22.04
2022-10-08T11:12:32.270Z,22.80
2022-10-08T11:15:07.123Z,23.01
2022-10-08T11:17:52.263Z,22.55
2022-10-08T11:20:39.666Z,22.10
2022-10-08T11:23:19.676Z,21.85
2022-10-08T11:26:20.505Z,22.05
2022-10-08T11:28:54.874Z,22.78
2022-10-08T11:31:34.383Z,22.51
2022-10-08T11:34:04.560Z,22.97
2022-10-08T11:36:38.703Z,22.83
2022-10-08T11:39:15.865Z,21.68
2022-10-08T11:41:53.562Z,21.67
2022-10-08T11:44:22.148Z,21.67
2022-10-08T11:46:50.278Z,22.11
2022-10-08T11:49:50.981Z,22.06
2022-10-08T11:52:19.212Z,21.85
2022-10-08T11:54:55.797Z,22.25
2022-10-08T12:00:34.030Z,24.28
2022-10-08T12:03:05.783Z,25.17
2022-10-08T12:05:46.704Z,26.13
2022-10-08T12:08:48.937Z,26.92
2022-10-08T12:11:48.317Z,28.21
2022-10-08T12:14:45.522Z,28.26
2022-10-08T12:17:14.062Z,26.20
2022-10-08T12:20:19.982Z,27.38
2022-10-08T12:23:06.410Z,27.29
2022-10-08T12:25:38.492Z,27.13
2022-10-08T12:28:47.586Z,27.75
2022-10-08T12:31:29.072Z,27.41
2022-10-08T12:33:59.807Z,28.34
2022-10-08T12:36:46.948Z,27.86
2022-10-08T12:39:34.647Z,27.30
2022-10-08T12:42:10.783Z,23.92
2022-10-08T12:44:50.640Z,24.65
2022-10-08T12:47:29.670Z,25.15
2022-10-08T12:50:01.618Z,26.19
2022-10-08T12:52:35.481Z,24.51
2022-10-08T12:55:06.256Z,25.06
2022-10-08T12:57:37.401Z,24.84
2022-10-08T13:00:09.466Z,24.15
2022-10-08T13:02:41.227Z,23.88
2022-10-08T13:05:26.209Z,23.98
2022-10-08T13:07:54.851Z,23.33
2022-10-08T13:10:25.262Z,23.98
2022-10-08T13:13:01.275Z,24.34
2022-10-08T13:15:30.783Z,24.90
2022-10-08T13:18:00.265Z,25.37
2022-10-08T13:20:28.285Z,25.30
2022-10-08T13:22:56.205Z,25.47
2022-10-08T13:25:36.330Z,24.07
2022-10-08T13:28:12.447Z,24.27
2022-10-08T13:30:41.438Z,23.51
2022-10-08T13:33:18.459Z,23.68
2022-10-08T13:35:53.721Z,23.71
2022-10-08T13:38:24.722Z,24.13
2022-10-08T13:40:54.533Z,23.54
2022-10-08T13:43:23.231Z,23.87
2022-10-08T13:45:51.176Z,24.16
2022-10-08T13:48:20.583Z,23.27
2022-10-08T13:50:51.207Z,23.71
2022-10-08T13:53:21.763Z,23.89
2022-10-08T13:55:51.226Z,23.75
2022-10-08T13:58:21.399Z,23.90
2022-10-08T14:00:50.069Z,24.73
2022-10-08T14:03:18.169Z,24.43
2022-10-08T14:05:49.286Z,24.03
2022-10-08T14:08:20.195Z,24.08
2022-10-08T14:10:48.421Z,24.32
2022-10-08T14:13:17.260Z,24.09
2022-10-08T14:15:45.358Z,24.25
2022-10-08T14:18:13.347Z,23.37
2022-10-08T14:20:41.481Z,23.19
2022-10-08T14:23:13.423Z,22.93
2022-10-08T14:25:41.406Z,22.96
2022-10-08T14:28:09.458Z,23.36
2022-10-08T14:30:37.633Z,23.24
2022-10-08T14:33:10.293Z,22.08
2022-10-08T14:35:39.146Z,22.81
2022-10-08T14:38:07.601Z,23.87
2022-10-08T14:40:37.001Z,22.90
2022-10-08T14:43:05.039Z,23.32
2022-10-08T14:45:33.144Z,22.76
2022-10-08T14:48:01.117Z,22.57
2022-10-08T14:50:29.106Z,22.69
2022-10-08T14:52:57.157Z,22.14
2022-10-08T14:55:25.132Z,21.89
2022-10-08T14:57:54.496Z,21.96
2022-10-08T15:00:22.583Z,21.76
2022-10-08T15:02:50.684Z,21.13
2022-10-08T15:05:18.766Z,21.55
2022-10-08T15:07:47.098Z,21.31
2022-10-08T15:10:15.341Z,22.00
2022-10-08T15:12:43.390Z,21.68
2022-10-08T15:15:12.952Z,21.27
2022-10-08T15:17:41.044Z,21.91
2022-10-08T15:20:09.893Z,20.93
2022-10-08T15:22:37.894Z,20.88
2022-10-08T15:25:06.569Z,20.84
2022-10-08T15:27:34.636Z,20.28
2022-10-08T15:30:02.618Z,20.01
2022-10-08T15:32:32.312Z,20.04
2022-10-08T15:35:00.372Z,20.07
2022-10-08T15:37:28.366Z,19.83
2022-10-08T15:39:56.337Z,19.77
2022-10-08T15:42:24.284Z,19.76
2022-10-08T15:44:52.258Z,19.72
2022-10-08T15:47:20.250Z,19.79
2022-10-08T15:49:49.732Z,19.85
2022-10-08T15:52:19.810Z,19.36
2022-10-08T15:54:48.746Z,19.57
2022-10-08T15:57:18.604Z,19.64
2022-10-08T15:59:46.663Z,19.67
2022-10-08T16:02:17.477Z,19.83
2022-10-08T16:04:47.626Z,19.56
2022-10-08T16:07:17.960Z,19.93
2022-10-08T16:09:46.109Z,19.68
2022-10-08T16:12:14.076Z,19.63
2022-10-08T16:14:42.014Z,19.20
2022-10-08T16:17:10.205Z,19.07
2022-10-08T16:19:38.358Z,19.16
2022-10-08T16:22:07.753Z,18.62
2022-10-08T16:24:37.086Z,18.57
2022-10-08T16:27:05.244Z,18.77
2022-10-08T16:29:33.212Z,18.89
2022-10-08T16:32:01.210Z,18.77
2022-10-08T16:34:30.672Z,18.68
2022-10-08T16:37:01.444Z,18.81
2022-10-08T16:39:29.598Z,19.11
2022-10-08T16:41:59.021Z,18.70
2022-10-08T16:44:27.361Z,18.78
2022-10-08T16:46:55.347Z,18.96
2022-10-08T16:49:26.252Z,18.89
2022-10-08T16:51:56.306Z,18.83
2022-10-08T16:54:24.422Z,19.22
2022-10-08T16:56:53.143Z,19.20
2022-10-08T16:59:24.481Z,19.39
2022-10-08T17:01:54.752Z,18.59
2022-10-08T17:04:24.634Z,18.53
2022-10-08T17:06:53.297Z,18.84
2022-10-08T17:09:21.651Z,19.19
2022-10-08T17:11:50.110Z,18.72
2022-10-08T17:14:18.109Z,18.60
2022-10-08T17:16:47.521Z,18.66
2022-10-08T17:19:15.726Z,18.41
2022-10-08T17:21:43.987Z,18.13
2022-10-08T17:24:13.159Z,17.85
2022-10-08T17:26:42.945Z,17.77
2022-10-08T17:29:13.021Z,17.68
2022-10-08T17:31:41.149Z,17.38
2022-10-08T17:34:11.617Z,17.97
2022-10-08T17:36:41.682Z,17.57
2022-10-08T17:39:12.644Z,17.53
2022-10-08T17:41:42.521Z,17.42
2022-10-08T17:44:11.620Z,17.48
2022-10-08T17:46:42.787Z,17.50
2022-10-08T17:49:12.674Z,17.97
2022-10-08T17:51:40.756Z,17.79
2022-10-08T17:54:12.093Z,17.22
2022-10-08T17:56:40.791Z,17.20
2022-10-08T17:59:09.115Z,17.46
2022-10-08T18:01:41.473Z,17.50
2022-10-08T18:04:16.740Z,17.03
2022-10-08T18:06:46.640Z,16.76
2022-10-08T18:09:16.449Z,16.93
2022-10-08T18:11:46.550Z,16.99
2022-10-08T18:14:15.051Z,16.77
2022-10-08T18:16:47.635Z,16.88
2022-10-08T18:19:18.673Z,16.62
2022-10-08T18:21:47.106Z,17.02
2022-10-08T18:24:18.328Z,16.73
2022-10-08T18:26:46.795Z,16.84
2022-10-08T18:29:15.505Z,16.75
2022-10-08T18:31:45.052Z,16.83
2022-10-08T18:34:15.474Z,16.33
2022-10-08T18:36:45.693Z,16.34
2022-10-08T18:39:15.470Z,16.83
2022-10-08T18:41:45.123Z,16.52
2022-10-08T18:44:15.324Z,16.71
2022-10-08T18:46:44.695Z,16.41
2022-10-08T18:49:14.431Z,16.74
2022-10-08T18:51:42.433Z,16.15
2022-10-08T18:54:13.094Z,16.15
2022-10-08T18:56:41.520Z,16.12
2022-10-08T18:59:13.130Z,15.98
2022-10-08T19:01:42.853Z,16.04
2022-10-08T19:04:15.782Z,15.76
2022-10-08T19:06:45.474Z,15.79
2022-10-08T19:09:15.556Z,15.73
2022-10-08T19:11:45.426Z,15.72
2022-10-08T19:14:15.398Z,15.70
2022-10-08T19:16:43.541Z,15.88
2022-10-08T19:19:14.681Z,15.92
2022-10-08T19:21:43.390Z,15.73
2022-10-08T19:24:16.010Z,15.78
2022-10-08T19:26:44.421Z,15.95
2022-10-08T19:29:16.441Z,15.95
2022-10-08T19:31:47.428Z,15.51
2022-10-08T19:34:20.152Z,15.64
2022-10-08T19:36:48.260Z,15.92
2022-10-08T19:39:19.694Z,15.94
2022-10-08T19:41:47.846Z,16.21
2022-10-08T19:44:16.619Z,16.09
2022-10-08T19:46:44.959Z,15.97
2022-10-08T19:49:13.556Z,15.54
2022-10-08T19:51:42.194Z,15.90
2022-10-08T19:54:10.415Z,15.98
2022-10-08T19:56:40.180Z,15.99
2022-10-08T19:59:08.356Z,15.72
2022-10-08T20:01:37.917Z,15.67
2022-10-08T20:04:07.579Z,15.71
2022-10-08T20:06:38.755Z,15.62
2022-10-08T20:09:09.884Z,16.03
2022-10-08T20:11:39.976Z,15.85
2022-10-08T20:14:08.482Z,15.85
2022-10-08T20:16:37.725Z,15.88
2022-10-08T20:19:08.034Z,15.99
2022-10-08T20:21:38.495Z,15.68
2022-10-08T20:24:07.104Z,15.63
2022-10-08T20:26:36.483Z,15.43
2022-10-08T20:29:08.153Z,15.52
2022-10-08T20:31:37.762Z,15.92
2022-10-08T20:34:07.474Z,16.07
2022-10-08T20:36:35.931Z,15.62
2022-10-08T20:39:04.863Z,15.41
2022-10-08T20:41:32.920Z,15.86
2022-10-08T20:44:02.975Z,15.47
2022-10-08T20:46:34.014Z,15.74
2022-10-08T20:49:02.619Z,15.39
2022-10-08T20:51:31.458Z,16.10
2022-10-08T20:54:01.249Z,16.32
2022-10-08T20:56:29.984Z,15.92
2022-10-08T20:58:58.749Z,16.48
2022-10-08T21:01:31.471Z,16.09
2022-10-08T21:04:01.643Z,16.41
2022-10-08T21:06:31.579Z,16.29
2022-10-08T21:09:00.399Z,15.86
2022-10-08T21:11:30.349Z,15.80
2022-10-08T21:13:59.552Z,16.29
2022-10-08T21:16:30.271Z,15.83
2022-10-08T21:19:01.121Z,15.44
2022-10-08T21:21:30.840Z,15.74
2022-10-08T21:23:59.329Z,15.80
2022-10-08T21:26:29.634Z,15.95
2022-10-08T21:28:59.437Z,15.56
2022-10-08T21:31:29.080Z,16.04
2022-10-08T21:33:57.976Z,15.90
2022-10-08T21:36:29.706Z,16.09
2022-10-08T21:38:59.464Z,16.03
2022-10-08T21:41:32.897Z,16.16
2022-10-08T21:44:03.296Z,15.73
2022-10-08T21:46:34.677Z,16.09
2022-10-08T21:49:04.618Z,15.51
2022-10-08T21:51:34.789Z,15.47
2022-10-08T21:54:05.599Z,15.72
2022-10-08T21:56:35.907Z,15.78
2022-10-08T21:59:06.309Z,15.34
2022-10-08T22:01:37.474Z,15.50
2022-10-08T22:04:07.851Z,15.66
2022-10-08T22:06:39.096Z,15.39
2022-10-08T22:09:07.955Z,15.07
2022-10-08T22:11:36.131Z,15.13
2022-10-08T22:14:04.409Z,15.15
2022-10-08T22:16:32.520Z,14.93
2022-10-08T22:19:00.672Z,14.93
2022-10-08T22:21:28.923Z,15.36
2022-10-08T22:23:58.348Z,15.29
2022-10-08T22:26:29.472Z,15.40
2022-10-08T22:28:58.446Z,15.31
2022-10-08T22:31:27.505Z,15.32
2022-10-08T22:33:55.706Z,15.47
2022-10-08T22:36:25.366Z,15.02
2022-10-08T22:38:54.521Z,15.26
2022-10-08T22:41:25.565Z,15.11
2022-10-08T22:43:54.139Z,15.56
2022-10-08T22:46:24.229Z,15.32
2022-10-08T22:48:52.730Z,15.13
2022-10-08T22:51:22.422Z,15.28
2022-10-08T22:53:50.640Z,15.44
2022-10-08T22:56:20.754Z,15.60
2022-10-08T22:58:51.334Z,15.61
2022-10-08T23:01:21.479Z,15.29
2022-10-08T23:03:50.603Z,15.19
2022-10-08T23:06:20.422Z,15.74
2022-10-08T23:08:50.177Z,15.76
2022-10-08T23:11:18.253Z,15.74
2022-10-08T23:13:46.574Z,16.28
2022-10-08T23:16:16.709Z,16.21
2022-10-08T23:18:47.440Z,15.97
2022-10-08T23:21:18.041Z,15.35
2022-10-08T23:23:47.557Z,15.24
2022-10-08T23:26:17.030Z,15.43
2022-10-08T23:28:46.094Z,15.35
2022-10-08T23:31:17.589Z,15.30
2022-10-08T23:33:49.705Z,15.63
2022-10-08T23:36:19.676Z,15.52
2022-10-08T23:38:47.992Z,15.36
2022-10-08T23:41:16.376Z,15.41
2022-10-08T23:43:46.145Z,15.71
2022-10-08T23:46:17.014Z,15.80
2022-10-08T23:48:45.296Z,15.48
2022-10-08T23:51:14.862Z,15.47
2022-10-08T23:53:44.286Z,15.15
2022-10-08T23:56:13.014Z,15.63
2022-10-08T23:58:41.456Z,16.22
